Overton RPC :: 150B - ONLY, TN

liberation: 2020-10-03  08:00     latitude: 35.871380     longitude: -87.706677 25 birds
# LOFT PRING MILES ARRIVAL SPEED ToWin
1 VALHALLA LOFTS IF20-VALH-0018 139.784 2020-10-03 11:37:34.317 1130.755 00:00:00
2 VALHALLA LOFTS IF20-VALH-0041 139.784 2020-10-03 11:38:24.681 1126.409 00:00:50
3 VALHALLA LOFTS IF20-VALH-0044 139.784 2020-10-03 11:39:25.011 1121.247 00:01:51
4 VALHALLA LOFTS IF20-VALH-0093 139.784 2020-10-03 11:39:47.260 1119.355 00:02:13
5 VALHALLA LOFTS IF20-VALH-0007 139.784 2020-10-03 11:39:51.770 1118.973 00:02:17
6 VALHALLA LOFTS IF20-VALH-0031 139.784 2020-10-03 11:40:04.335 1117.908 00:02:30
7 VALHALLA LOFTS IF20-VALH-0030 139.784 2020-10-03 11:40:14.459 1117.051 00:02:40
8 VALHALLA LOFTS IF20-VALH-0032 139.784 2020-10-03 11:40:40.416 1114.861 00:03:06
9 VALHALLA LOFTS IF20-VALH-0022 139.784 2020-10-03 11:40:47.364 1114.277 00:03:13
10 VALHALLA LOFTS IF20-VALH-0005 139.784 2020-10-03 11:40:49.432 1114.103 00:03:15
11 VALHALLA LOFTS IF20-VALH-0021 139.784 2020-10-03 11:41:11.859 1112.220 00:03:38
12 VALHALLA LOFTS IF20-VALH-0034 139.784 2020-10-03 11:41:45.322 1109.423 00:04:11
13 VALHALLA LOFTS IF20-VALH-0040 139.784 2020-10-03 11:50:19.617 1068.136 00:12:45
14 VALHALLA LOFTS IF20-VALH-0029 139.784 2020-10-03 11:58:11.742 1032.850 00:20:37
15 LET IT GO LOFT IF20-ORP-0138 162.717 2020-10-03 12:55:56.257 967.710 00:42:40
16 LET IT GO LOFT IF20-ORP-0134 162.717 2020-10-03 13:53:55.699 809.152 01:40:40
17 VALHALLA LOFTS IF20-VALH-0014 139.784 2020-10-03 14:51:39.321 597.637 03:14:05
18 VALHALLA LOFTS IF20-VALH-0048 139.784 2020-10-03 15:30:17.776 546.352 03:52:43
19 LET IT GO LOFT IF20-ORP-0123 162.717 2020-10-04 07:44:47.308 383.271 08:13:56
LET IT GO LOFT IF20-ORP-0109 0 0000-00-00 00:00:00.000 0.000 00:00:00
LET IT GO LOFT IF20-ORP-0113 0 0000-00-00 00:00:00.000 0.000 00:00:00
LET IT GO LOFT IF20-ORP-0119 0 0000-00-00 00:00:00.000 0.000 00:00:00
LET IT GO LOFT IF20-ORP-0130 0 0000-00-00 00:00:00.000 0.000 00:00:00
LET IT GO LOFT IF20-ORP-0133 0 0000-00-00 00:00:00.000 0.000 00:00:00
VALHALLA LOFTS IF20-VALH-0003 0 0000-00-00 00:00:00.000 0.000 00:00:00